createdAt,value
2019-03-04T00:00:11.828Z,79.61
2019-03-04T00:01:11.816Z,79.44
2019-03-04T00:02:11.824Z,79.64
2019-03-04T00:03:11.796Z,79.64
2019-03-04T00:04:11.787Z,79.24
2019-03-04T00:05:11.775Z,79.85
2019-03-04T00:06:11.798Z,79.85
2019-03-04T00:07:11.750Z,79.75
2019-03-04T00:08:11.741Z,80.51
2019-03-04T00:09:11.752Z,80.51
2019-03-04T00:10:11.719Z,80.40
2019-03-04T00:11:11.708Z,80.30
2019-03-04T00:12:11.699Z,80.05
2019-03-04T00:13:11.688Z,80.36
2019-03-04T00:14:11.707Z,79.96
2019-03-04T00:15:11.668Z,79.85
2019-03-04T00:16:11.654Z,80.16
2019-03-04T00:17:11.647Z,79.54
2019-03-04T00:18:11.654Z,79.64
2019-03-04T00:19:11.623Z,79.85
2019-03-04T00:20:11.608Z,79.64
2019-03-04T00:21:11.595Z,80.16
2019-03-04T00:22:11.608Z,79.75
2019-03-04T00:23:11.576Z,79.54
2019-03-04T00:24:11.577Z,79.61
2019-03-04T00:25:11.557Z,79.71
2019-03-04T00:26:11.537Z,79.54
2019-03-04T00:27:11.530Z,79.44
2019-03-04T00:28:11.546Z,79.85
2019-03-04T00:29:11.524Z,79.54
2019-03-04T00:30:11.498Z,79.24
2019-03-04T00:31:11.485Z,79.24
2019-03-04T00:32:11.504Z,79.64
2019-03-04T00:33:11.462Z,79.24
2019-03-04T00:34:11.449Z,79.96
2019-03-04T00:35:11.441Z,79.54
2019-03-04T00:36:11.428Z,79.44
2019-03-04T00:37:11.440Z,79.64
2019-03-04T00:38:11.411Z,79.44
2019-03-04T00:39:11.417Z,79.54
2019-03-04T00:40:11.381Z,79.44
2019-03-04T00:41:11.372Z,79.85
2019-03-04T00:42:11.361Z,79.85
2019-03-04T00:43:11.356Z,79.75
2019-03-04T00:44:11.364Z,79.96
2019-03-04T00:45:11.331Z,79.85
2019-03-04T00:46:11.315Z,79.30
2019-03-04T00:47:11.306Z,79.10
2019-03-04T00:48:11.317Z,79.10
2019-03-04T00:49:11.289Z,79.50
2019-03-04T00:50:11.274Z,79.10
2019-03-04T00:51:11.263Z,79.41
2019-03-04T00:52:11.248Z,79.30
2019-03-04T00:53:11.264Z,79.50
2019-03-04T00:54:11.257Z,78.69
2019-03-04T00:55:11.216Z,78.96
2019-03-04T00:56:11.204Z,78.34
2019-03-04T00:57:11.192Z,78.45
2019-03-04T00:58:11.209Z,78.45
2019-03-04T00:59:11.175Z,78.45
2019-03-04T01:00:11.165Z,78.04
2019-03-04T01:01:11.149Z,78.34
2019-03-04T01:02:11.148Z,78.24
2019-03-04T01:03:11.155Z,78.24
2019-03-04T01:04:11.120Z,78.34
2019-03-04T01:05:11.106Z,77.94
2019-03-04T01:06:11.123Z,78.04
2019-03-04T01:07:11.083Z,78.04
2019-03-04T01:08:11.074Z,78.14
2019-03-04T01:09:11.085Z,78.34
2019-03-04T01:10:11.075Z,78.14
2019-03-04T01:11:11.045Z,78.34
2019-03-04T01:12:11.027Z,78.24
2019-03-04T01:13:11.042Z,78.55
2019-03-04T01:14:11.006Z,77.94
2019-03-04T01:15:10.993Z,77.83
2019-03-04T01:16:11.000Z,77.94
2019-03-04T01:17:10.991Z,78.55
2019-03-04T01:18:10.959Z,78.45
2019-03-04T01:19:10.974Z,78.75
2019-03-04T01:20:10.941Z,77.94
2019-03-04T01:21:10.927Z,77.94
2019-03-04T01:22:10.924Z,78.14
2019-03-04T01:23:10.932Z,77.42
2019-03-04T01:24:10.890Z,77.29
2019-03-04T01:25:10.880Z,76.47
2019-03-04T01:26:10.899Z,77.39
2019-03-04T01:27:10.865Z,76.47
2019-03-04T01:28:10.871Z,76.88
2019-03-04T01:29:10.837Z,77.19
2019-03-04T01:30:10.831Z,77.01
2019-03-04T01:31:10.816Z,77.94
2019-03-04T01:32:10.832Z,77.39
2019-03-04T01:33:10.793Z,77.32
2019-03-04T01:34:10.805Z,77.83
2019-03-04T01:35:10.778Z,77.12
2019-03-04T01:36:10.766Z,76.61
2019-03-04T01:37:10.752Z,76.67
2019-03-04T01:38:10.758Z,77.22
2019-03-04T01:39:10.725Z,76.61
2019-03-04T01:40:10.727Z,77.01
2019-03-04T01:41:10.705Z,77.12
2019-03-04T01:42:10.692Z,77.22
2019-03-04T01:43:10.699Z,77.76
2019-03-04T01:44:10.674Z,78.08
2019-03-04T01:45:10.660Z,77.63
2019-03-04T01:46:10.652Z,77.42
2019-03-04T01:47:10.634Z,76.81
2019-03-04T01:48:10.648Z,76.81
2019-03-04T01:49:10.614Z,76.61
2019-03-04T01:50:10.611Z,76.20
2019-03-04T01:51:10.634Z,76.20
2019-03-04T01:52:10.582Z,76.71
2019-03-04T01:53:10.573Z,76.84
2019-03-04T01:54:10.563Z,77.01
2019-03-04T01:55:10.546Z,76.75
2019-03-04T01:56:10.564Z,76.81
2019-03-04T01:57:10.536Z,75.99
2019-03-04T01:58:10.516Z,76.91
2019-03-04T01:59:10.528Z,76.71
2019-03-04T02:00:10.496Z,75.89
2019-03-04T02:01:10.486Z,76.71
2019-03-04T02:02:10.472Z,76.50
2019-03-04T02:03:10.492Z,76.61
2019-03-04T02:04:10.453Z,76.64
2019-03-04T02:05:10.437Z,76.64
2019-03-04T02:06:10.439Z,76.54
2019-03-04T02:07:10.417Z,76.40
2019-03-04T02:08:10.432Z,76.71
2019-03-04T02:09:10.401Z,76.20
2019-03-04T02:10:10.384Z,76.61
2019-03-04T02:11:10.403Z,76.09
2019-03-04T02:12:10.365Z,76.09
2019-03-04T02:13:10.349Z,76.09
2019-03-04T02:14:10.362Z,76.20
2019-03-04T02:15:10.346Z,75.27
2019-03-04T02:16:10.318Z,76.06
2019-03-04T02:17:10.321Z,76.16
2019-03-04T02:18:10.291Z,75.85
2019-03-04T02:19:10.322Z,76.06
2019-03-04T02:20:10.272Z,75.75
2019-03-04T02:21:10.267Z,75.85
2019-03-04T02:22:10.255Z,75.96
2019-03-04T02:23:10.235Z,75.14
2019-03-04T02:24:10.249Z,75.38
2019-03-04T02:25:10.222Z,75.96
2019-03-04T02:26:10.215Z,74.73
2019-03-04T02:27:10.219Z,76.16
2019-03-04T02:28:10.185Z,75.96
2019-03-04T02:29:10.170Z,74.93
2019-03-04T02:30:10.164Z,76.09
2019-03-04T02:31:10.179Z,75.89
2019-03-04T02:32:10.138Z,75.34
2019-03-04T02:33:10.132Z,74.73
2019-03-04T02:34:10.115Z,74.43
2019-03-04T02:35:10.106Z,74.22
2019-03-04T02:36:10.116Z,74.18
2019-03-04T02:37:10.086Z,74.93
2019-03-04T02:38:10.075Z,75.04
2019-03-04T02:39:10.089Z,75.04
2019-03-04T02:40:10.093Z,75.17
2019-03-04T02:41:10.039Z,74.22
2019-03-04T02:42:10.056Z,74.02
2019-03-04T02:43:10.021Z,74.43
2019-03-04T02:44:10.035Z,74.11
2019-03-04T02:45:09.991Z,74.22
2019-03-04T02:46:09.985Z,74.63
2019-03-04T02:47:10.006Z,74.73
2019-03-04T02:48:09.968Z,74.73
2019-03-04T02:49:09.948Z,74.43
2019-03-04T02:50:09.949Z,75.17
2019-03-04T02:51:09.950Z,75.07
2019-03-04T02:52:10.035Z,74.63
2019-03-04T02:53:09.911Z,74.73
2019-03-04T02:54:09.891Z,74.84
2019-03-04T02:55:09.880Z,73.91
2019-03-04T02:56:09.873Z,74.46
2019-03-04T02:57:09.890Z,74.73
2019-03-04T02:58:09.852Z,74.63
2019-03-04T02:59:09.846Z,74.43
2019-03-04T03:00:09.835Z,74.22
2019-03-04T03:01:09.866Z,73.91
2019-03-04T03:02:09.810Z,74.22
2019-03-04T03:03:09.790Z,73.47
2019-03-04T03:04:09.779Z,73.10
2019-03-04T03:05:09.770Z,74.22
2019-03-04T03:06:09.785Z,74.63
2019-03-04T03:07:09.754Z,73.88
2019-03-04T03:08:09.739Z,74.11
2019-03-04T03:09:09.726Z,73.77
2019-03-04T03:10:09.714Z,74.39
2019-03-04T03:11:09.725Z,74.29
2019-03-04T03:12:09.728Z,73.47
2019-03-04T03:13:09.685Z,74.29
2019-03-04T03:14:09.676Z,74.43
2019-03-04T03:15:09.660Z,74.43
2019-03-04T03:16:09.667Z,74.29
2019-03-04T03:17:09.656Z,74.49
2019-03-04T03:18:09.625Z,73.88
2019-03-04T03:19:09.621Z,73.98
2019-03-04T03:20:09.603Z,73.68
2019-03-04T03:21:09.635Z,72.92
2019-03-04T03:22:09.587Z,73.03
2019-03-04T03:23:09.575Z,73.03
2019-03-04T03:24:09.587Z,73.40
2019-03-04T03:25:09.557Z,72.69
2019-03-04T03:26:09.538Z,73.19
2019-03-04T03:27:09.534Z,72.92
2019-03-04T03:28:09.553Z,72.92
2019-03-04T03:29:09.510Z,73.03
2019-03-04T03:30:09.521Z,73.44
2019-03-04T03:31:09.502Z,73.03
2019-03-04T03:32:09.477Z,73.74
2019-03-04T03:33:09.496Z,73.33
2019-03-04T03:34:09.464Z,73.64
2019-03-04T03:35:09.441Z,73.77
2019-03-04T03:36:09.426Z,73.57
2019-03-04T03:37:09.419Z,73.54
2019-03-04T03:38:09.435Z,73.13
2019-03-04T03:39:09.388Z,73.03
2019-03-04T03:40:09.431Z,72.72
2019-03-04T03:41:09.369Z,72.21
2019-03-04T03:42:09.365Z,72.07
2019-03-04T03:43:09.378Z,71.97
2019-03-04T03:44:09.338Z,71.97
2019-03-04T03:45:09.321Z,71.97
2019-03-04T03:46:09.341Z,72.38
2019-03-04T03:47:09.298Z,72.52
2019-03-04T03:48:09.324Z,72.41
2019-03-04T03:49:09.279Z,73.03
2019-03-04T03:50:09.281Z,73.03
2019-03-04T03:51:09.255Z,72.72
2019-03-04T03:52:09.254Z,72.92
2019-03-04T03:53:09.262Z,72.62
2019-03-04T03:54:09.222Z,73.03
2019-03-04T03:55:09.217Z,73.13
2019-03-04T03:56:09.202Z,72.92
2019-03-04T03:57:09.213Z,72.86
2019-03-04T03:58:09.203Z,72.82
2019-03-04T03:59:09.189Z,72.55
2019-03-04T04:00:09.160Z,73.03
2019-03-04T04:01:09.176Z,72.72
2019-03-04T04:02:09.139Z,73.03
2019-03-04T04:03:09.164Z,72.92
2019-03-04T04:04:09.107Z,73.13
2019-03-04T04:05:09.125Z,72.52
2019-03-04T04:06:09.091Z,72.72
2019-03-04T04:07:09.078Z,72.72
2019-03-04T04:08:09.068Z,73.13
2019-03-04T04:09:09.129Z,72.92
2019-03-04T04:10:09.071Z,73.54
2019-03-04T04:11:09.035Z,73.44
2019-03-04T04:12:09.033Z,73.16
2019-03-04T04:13:09.010Z,73.16
2019-03-04T04:14:09.004Z,73.16
2019-03-04T04:15:09.022Z,73.57
2019-03-04T04:16:08.978Z,73.27
2019-03-04T04:17:08.970Z,72.82
2019-03-04T04:18:08.961Z,73.74
2019-03-04T04:19:08.951Z,73.54
2019-03-04T04:20:08.958Z,73.68
2019-03-04T04:21:08.923Z,73.36
2019-03-04T04:22:08.911Z,73.06
2019-03-04T04:23:08.927Z,72.96
2019-03-04T04:24:08.889Z,73.23
2019-03-04T04:25:08.881Z,73.54
2019-03-04T04:26:08.888Z,72.92
2019-03-04T04:27:08.854Z,73.13
2019-03-04T04:28:08.846Z,72.62
2019-03-04T04:29:08.849Z,73.13
2019-03-04T04:30:08.821Z,72.92
2019-03-04T04:31:08.835Z,73.13
2019-03-04T04:32:08.799Z,72.82
2019-03-04T04:33:08.821Z,72.82
2019-03-04T04:34:08.779Z,73.44
2019-03-04T04:35:08.765Z,73.33
2019-03-04T04:36:08.780Z,73.16
2019-03-04T04:37:08.753Z,73.13
2019-03-04T04:38:08.733Z,72.72
2019-03-04T04:39:08.751Z,72.72
2019-03-04T04:40:08.711Z,72.52
2019-03-04T04:41:08.698Z,72.92
2019-03-04T04:42:08.686Z,72.62
2019-03-04T04:43:08.672Z,72.62
2019-03-04T04:44:08.696Z,72.52
2019-03-04T04:45:08.654Z,72.41
2019-03-04T04:46:08.645Z,72.72
2019-03-04T04:47:08.629Z,73.03
2019-03-04T04:48:08.621Z,73.13
2019-03-04T04:49:08.637Z,72.62
2019-03-04T04:50:08.607Z,72.62
2019-03-04T04:51:08.591Z,72.72
2019-03-04T04:52:08.576Z,72.72
2019-03-04T04:53:08.564Z,72.92
2019-03-04T04:54:08.578Z,73.03
2019-03-04T04:55:08.543Z,72.52
2019-03-04T04:56:08.532Z,73.03
2019-03-04T04:57:08.517Z,73.16
2019-03-04T04:58:08.536Z,73.33
2019-03-04T04:59:08.532Z,72.82
2019-03-04T05:00:08.487Z,73.03
2019-03-04T05:01:08.476Z,72.82
2019-03-04T05:02:08.801Z,72.82
2019-03-04T05:03:08.735Z,73.33
2019-03-04T05:04:08.464Z,72.41
2019-03-04T05:05:08.434Z,72.62
2019-03-04T05:06:08.440Z,72.92
2019-03-04T05:07:08.406Z,72.52
2019-03-04T05:08:08.396Z,72.41
2019-03-04T05:09:08.409Z,72.28
2019-03-04T05:10:08.377Z,72.58
2019-03-04T05:11:08.389Z,72.41
2019-03-04T05:12:08.352Z,72.52
2019-03-04T05:13:08.339Z,72.38
2019-03-04T05:14:08.339Z,72.38
2019-03-04T05:15:08.323Z,72.38
2019-03-04T05:16:08.341Z,72.28
2019-03-04T05:17:08.294Z,71.56
2019-03-04T05:18:08.290Z,72.04
2019-03-04T05:19:08.272Z,71.53
2019-03-04T05:20:08.266Z,71.73
2019-03-04T05:21:08.283Z,71.53
2019-03-04T05:22:08.248Z,72.17
2019-03-04T05:23:08.261Z,71.33
2019-03-04T05:24:08.220Z,71.22
2019-03-04T05:25:08.208Z,71.22
2019-03-04T05:26:08.206Z,71.63
2019-03-04T05:27:08.182Z,71.53
2019-03-04T05:28:08.199Z,71.67
2019-03-04T05:29:08.160Z,71.56
2019-03-04T05:30:08.165Z,71.56
2019-03-04T05:31:08.140Z,70.81
2019-03-04T05:32:08.127Z,71.22
2019-03-04T05:33:08.120Z,70.81
2019-03-04T05:34:08.108Z,71.22
2019-03-04T05:35:08.122Z,70.72
2019-03-04T05:36:08.089Z,70.51
2019-03-04T05:37:08.071Z,70.61
2019-03-04T05:38:08.060Z,70.44
2019-03-04T05:39:08.077Z,70.51
2019-03-04T05:40:08.039Z,70.75
2019-03-04T05:41:08.027Z,70.20
2019-03-04T05:42:08.016Z,69.49
2019-03-04T05:43:08.030Z,70.31
2019-03-04T05:44:07.999Z,69.93
2019-03-04T05:45:07.984Z,70.20
2019-03-04T05:46:08.059Z,70.20
2019-03-04T05:47:07.965Z,70.31
2019-03-04T05:48:07.958Z,70.54
2019-03-04T05:49:07.939Z,69.79
2019-03-04T05:50:07.925Z,69.38
2019-03-04T05:51:07.947Z,69.08
2019-03-04T05:52:07.904Z,69.08
2019-03-04T05:53:07.899Z,69.08
2019-03-04T05:54:07.881Z,68.84
2019-03-04T05:55:08.901Z,68.57
2019-03-04T05:56:07.883Z,68.37
2019-03-04T05:57:07.857Z,68.57
2019-03-04T05:58:07.839Z,68.47
2019-03-04T05:59:07.829Z,68.06
2019-03-04T06:00:07.813Z,68.03
2019-03-04T06:01:07.842Z,67.82
2019-03-04T06:02:07.798Z,67.01
2019-03-04T06:03:07.783Z,67.32
2019-03-04T06:04:07.780Z,67.01
2019-03-04T06:05:07.759Z,67.32
2019-03-04T06:06:07.774Z,67.32
2019-03-04T06:07:07.738Z,67.62
2019-03-04T06:08:07.729Z,67.01
2019-03-04T06:09:07.718Z,68.13
2019-03-04T06:10:07.735Z,68.06
2019-03-04T06:11:07.696Z,68.47
2019-03-04T06:12:07.682Z,67.55
2019-03-04T06:13:07.679Z,67.72
2019-03-04T06:14:07.682Z,67.55
2019-03-04T06:15:07.676Z,68.77
2019-03-04T06:16:07.640Z,67.01
2019-03-04T06:17:07.625Z,67.52
2019-03-04T06:18:07.648Z,67.52
2019-03-04T06:19:07.607Z,66.91
2019-03-04T06:20:07.598Z,66.80
2019-03-04T06:21:07.625Z,67.62
2019-03-04T06:22:07.575Z,67.01
2019-03-04T06:23:07.563Z,66.80
2019-03-04T06:24:07.550Z,67.11
2019-03-04T06:25:07.607Z,67.11
2019-03-04T06:26:07.556Z,67.32
2019-03-04T06:27:07.519Z,67.11
2019-03-04T06:28:07.510Z,67.11
2019-03-04T06:29:07.494Z,67.11
2019-03-04T06:30:07.518Z,67.32
2019-03-04T06:31:07.484Z,67.11
2019-03-04T06:32:07.469Z,67.32
2019-03-04T06:33:07.452Z,67.24
2019-03-04T06:34:07.475Z,66.91
2019-03-04T06:35:07.437Z,66.94
2019-03-04T06:36:07.422Z,67.11
2019-03-04T06:37:07.406Z,65.89
2019-03-04T06:38:07.400Z,66.70
2019-03-04T06:39:07.408Z,66.39
2019-03-04T06:40:07.376Z,66.30
2019-03-04T06:41:07.362Z,66.50
2019-03-04T06:42:07.357Z,66.70
2019-03-04T06:43:07.343Z,66.39
2019-03-04T06:44:07.360Z,66.60
2019-03-04T06:45:07.326Z,66.09
2019-03-04T06:46:07.335Z,65.89
2019-03-04T06:47:07.299Z,66.30
2019-03-04T06:48:07.310Z,65.99
2019-03-04T06:49:07.273Z,65.37
2019-03-04T06:50:07.262Z,65.37
2019-03-04T06:51:07.255Z,65.48
2019-03-04T06:52:07.247Z,65.17
2019-03-04T06:53:07.256Z,64.84
2019-03-04T06:54:07.223Z,65.34
2019-03-04T06:55:07.211Z,64.94
2019-03-04T06:56:07.195Z,64.22
2019-03-04T06:57:07.205Z,64.53
2019-03-04T06:58:07.206Z,63.92
2019-03-04T06:59:07.164Z,64.02
2019-03-04T07:00:07.150Z,64.53
2019-03-04T07:01:07.146Z,64.43
2019-03-04T07:02:07.131Z,64.32
2019-03-04T07:03:07.145Z,64.22
2019-03-04T07:04:07.132Z,64.43
2019-03-04T07:05:07.101Z,64.22
2019-03-04T07:06:07.089Z,65.34
2019-03-04T07:07:07.100Z,64.43
2019-03-04T07:08:07.067Z,64.53
2019-03-04T07:09:07.058Z,64.02
2019-03-04T07:10:07.045Z,64.12
2019-03-04T07:11:07.035Z,64.32
2019-03-04T07:12:07.041Z,64.43
2019-03-04T07:13:07.015Z,63.07
2019-03-04T07:14:07.004Z,63.18
2019-03-04T07:15:07.017Z,63.38
2019-03-04T07:16:06.978Z,63.28
2019-03-04T07:17:06.976Z,62.63
2019-03-04T07:18:06.967Z,62.66
2019-03-04T07:19:06.949Z,62.87
2019-03-04T07:20:06.967Z,62.36
2019-03-04T07:21:06.945Z,62.05
2019-03-04T07:22:06.939Z,61.93
2019-03-04T07:23:06.899Z,62.43
2019-03-04T07:24:06.891Z,62.23
2019-03-04T07:25:06.886Z,62.87
2019-03-04T07:26:06.863Z,61.82
2019-03-04T07:27:06.880Z,61.90
2019-03-04T07:28:06.847Z,60.37
2019-03-04T07:29:06.840Z,58.61
2019-03-04T07:30:06.824Z,59.50
2019-03-04T07:31:06.813Z,59.93
2019-03-04T07:32:06.823Z,58.89
2019-03-04T07:33:06.785Z,59.70
2019-03-04T07:34:06.781Z,58.99
2019-03-04T07:35:06.789Z,58.81
2019-03-04T07:36:08.116Z,58.28
2019-03-04T07:37:06.746Z,57.67
2019-03-04T07:38:06.729Z,58.78
2019-03-04T07:39:06.720Z,58.38
2019-03-04T07:40:06.778Z,58.15
2019-03-04T07:41:06.698Z,58.07
2019-03-04T07:42:06.684Z,58.38
2019-03-04T07:43:06.677Z,57.56
2019-03-04T07:44:06.692Z,58.28
2019-03-04T07:45:06.657Z,58.58
2019-03-04T07:46:06.639Z,58.17
2019-03-04T07:47:06.644Z,58.17
2019-03-04T07:48:06.617Z,57.97
2019-03-04T07:49:06.646Z,57.67
2019-03-04T07:50:06.599Z,58.17
2019-03-04T07:51:06.584Z,57.97
2019-03-04T07:52:06.573Z,57.77
2019-03-04T07:53:06.562Z,58.07
2019-03-04T07:54:06.577Z,58.28
2019-03-04T07:55:06.542Z,58.07
2019-03-04T07:56:06.538Z,58.17
2019-03-04T07:57:06.540Z,57.46
2019-03-04T07:58:06.511Z,57.67
2019-03-04T07:59:06.497Z,58.17
2019-03-04T08:00:06.503Z,58.38
2019-03-04T08:01:06.473Z,57.56
2019-03-04T08:02:06.466Z,57.87
2019-03-04T08:03:06.477Z,58.38
2019-03-04T08:04:06.446Z,57.67
2019-03-04T08:05:06.431Z,58.17
2019-03-04T08:06:06.447Z,58.28
2019-03-04T08:07:06.406Z,58.48
2019-03-04T08:08:06.423Z,58.38
2019-03-04T08:09:06.388Z,58.28
2019-03-04T08:10:06.374Z,58.38
2019-03-04T08:11:06.392Z,58.10
2019-03-04T08:12:06.355Z,58.78
2019-03-04T08:13:06.349Z,57.97
2019-03-04T08:14:06.328Z,59.01
2019-03-04T08:15:06.344Z,58.17
2019-03-04T08:16:06.309Z,58.81
2019-03-04T08:17:06.327Z,58.69
2019-03-04T08:18:06.281Z,58.07
2019-03-04T08:19:06.306Z,59.30
2019-03-04T08:20:06.260Z,59.09
2019-03-04T08:21:06.277Z,58.28
2019-03-04T08:22:06.244Z,58.28
2019-03-04T08:23:06.233Z,59.30
2019-03-04T08:24:06.250Z,58.71
2019-03-04T08:25:06.203Z,58.78
2019-03-04T08:26:06.193Z,58.17
2019-03-04T08:27:06.191Z,58.35
2019-03-04T08:28:06.178Z,58.38
2019-03-04T08:29:06.188Z,57.84
2019-03-04T08:30:06.148Z,58.38
2019-03-04T08:31:06.152Z,58.04
2019-03-04T08:32:06.128Z,58.38
2019-03-04T08:33:06.167Z,57.97
2019-03-04T08:34:06.104Z,58.78
2019-03-04T08:35:06.097Z,58.17
2019-03-04T08:36:06.083Z,58.58
2019-03-04T08:37:06.074Z,57.97
2019-03-04T08:38:06.090Z,58.38
2019-03-04T08:39:06.051Z,58.61
2019-03-04T08:40:06.044Z,58.71
2019-03-04T08:41:06.028Z,58.81
2019-03-04T08:42:06.019Z,59.63
2019-03-04T08:43:06.027Z,58.71
2019-03-04T08:44:06.024Z,58.92
2019-03-04T08:45:05.982Z,60.16
2019-03-04T08:46:05.976Z,60.57
2019-03-04T08:47:05.960Z,60.47
2019-03-04T08:48:05.949Z,60.77
2019-03-04T08:49:05.971Z,60.68
2019-03-04T08:50:05.925Z,60.39
2019-03-04T08:51:05.940Z,60.68
2019-03-04T08:52:05.916Z,59.96
2019-03-04T08:53:05.925Z,58.94
2019-03-04T08:54:05.886Z,59.66
2019-03-04T08:55:05.877Z,59.55
2019-03-04T08:56:05.890Z,59.96
2019-03-04T08:57:05.856Z,59.75
2019-03-04T08:58:05.834Z,58.64
2019-03-04T08:59:05.855Z,59.86
2019-03-04T09:00:05.824Z,59.89
2019-03-04T09:01:05.802Z,60.30
2019-03-04T09:02:05.792Z,61.00
2019-03-04T09:03:05.808Z,61.82
2019-03-04T09:04:05.804Z,62.87
2019-03-04T09:05:05.758Z,64.43
2019-03-04T09:06:05.783Z,64.73
2019-03-04T09:07:05.738Z,67.01
2019-03-04T09:08:05.725Z,69.49
2019-03-04T09:09:05.741Z,71.77
2019-03-04T09:10:05.707Z,73.54
2019-03-04T09:11:05.721Z,75.82
2019-03-04T09:12:05.682Z,78.82
2019-03-04T09:13:05.671Z,82.21
2019-03-04T09:14:05.685Z,82.67
2019-03-04T09:15:05.647Z,82.89
2019-03-04T09:16:05.638Z,85.63
2019-03-04T09:17:05.631Z,88.04
2019-03-04T09:18:05.687Z,88.08
2019-03-04T09:19:05.635Z,88.64
2019-03-04T09:20:05.599Z,89.97
2019-03-04T09:21:05.585Z,90.24
2019-03-04T09:22:05.576Z,90.24
2019-03-04T09:23:05.557Z,89.42
2019-03-04T09:24:05.576Z,89.62
2019-03-04T09:25:05.538Z,90.86
2019-03-04T09:26:05.529Z,90.55
2019-03-04T09:27:05.516Z,90.34
2019-03-04T09:28:05.505Z,91.06
2019-03-04T09:29:05.516Z,91.47
2019-03-04T09:30:05.487Z,91.68
2019-03-04T09:31:05.504Z,91.68
2019-03-04T09:32:05.461Z,91.44
2019-03-04T09:33:05.445Z,90.72
2019-03-04T09:34:05.470Z,90.67
2019-03-04T09:35:05.429Z,91.49
2019-03-04T09:36:05.419Z,90.67
2019-03-04T09:37:05.403Z,89.75
2019-03-04T09:38:05.401Z,89.03
2019-03-04T09:39:05.414Z,88.47
2019-03-04T09:40:05.368Z,88.17
2019-03-04T09:41:05.364Z,87.75
2019-03-04T09:42:05.348Z,86.89
2019-03-04T09:43:05.340Z,87.71
2019-03-04T09:44:05.350Z,87.51
2019-03-04T09:45:05.345Z,87.71
2019-03-04T09:46:05.307Z,87.67
2019-03-04T09:47:05.298Z,87.37
2019-03-04T09:48:05.279Z,84.55
2019-03-04T09:49:05.272Z,84.45
2019-03-04T09:50:05.289Z,85.47
2019-03-04T09:51:05.279Z,85.17
2019-03-04T09:52:05.237Z,85.68
2019-03-04T09:53:05.230Z,85.13
2019-03-04T09:54:05.217Z,84.72
2019-03-04T09:55:05.226Z,85.05
2019-03-04T09:56:05.190Z,84.23
2019-03-04T09:57:05.206Z,83.10
2019-03-04T09:58:05.174Z,81.67
2019-03-04T09:59:05.163Z,80.85
2019-03-04T10:00:05.152Z,81.01
2019-03-04T10:01:05.144Z,82.71
2019-03-04T10:02:05.166Z,79.03
2019-03-04T10:03:05.113Z,79.54
2019-03-04T10:04:05.103Z,79.44
2019-03-04T10:05:05.098Z,78.17
2019-03-04T10:06:05.085Z,78.08
2019-03-04T10:07:05.101Z,78.17
2019-03-04T10:08:05.070Z,76.57
2019-03-04T10:09:05.047Z,76.57
2019-03-04T10:10:05.039Z,75.96
2019-03-04T10:11:05.026Z,76.68
2019-03-04T10:12:05.043Z,76.27
2019-03-04T10:13:05.009Z,77.29
2019-03-04T10:14:05.020Z,75.01
2019-03-04T10:15:08.331Z,74.49
2019-03-04T10:16:04.976Z,74.26
2019-03-04T10:17:04.957Z,72.92
2019-03-04T10:18:04.974Z,73.20
2019-03-04T10:19:04.941Z,73.10
2019-03-04T10:20:04.930Z,72.99
2019-03-04T10:21:04.924Z,73.10
2019-03-04T10:22:04.908Z,72.58
2019-03-04T10:23:04.920Z,72.69
2019-03-04T10:24:04.886Z,70.92
2019-03-04T10:25:04.895Z,70.47
2019-03-04T10:26:04.874Z,70.78
2019-03-04T10:27:04.853Z,70.03
2019-03-04T10:28:04.838Z,69.11
2019-03-04T10:29:04.824Z,69.32
2019-03-04T10:30:04.844Z,69.01
2019-03-04T10:31:04.836Z,70.31
2019-03-04T10:32:04.799Z,69.08
2019-03-04T10:33:04.789Z,67.24
2019-03-04T10:34:04.777Z,68.57
2019-03-04T10:35:04.787Z,67.07
2019-03-04T10:36:04.786Z,68.06
2019-03-04T10:37:04.744Z,68.84
2019-03-04T10:38:04.731Z,66.25
2019-03-04T10:39:04.714Z,67.07
2019-03-04T10:40:04.707Z,67.89
2019-03-04T10:41:04.727Z,67.85
2019-03-04T10:42:04.687Z,66.39
2019-03-04T10:43:04.668Z,65.17
2019-03-04T10:44:04.659Z,66.77
2019-03-04T10:45:04.671Z,64.22
2019-03-04T10:46:04.661Z,63.82
2019-03-04T10:47:04.631Z,64.84
2019-03-04T10:48:04.615Z,63.82
2019-03-04T10:49:04.609Z,63.79
2019-03-04T10:50:04.594Z,63.28
2019-03-04T10:51:04.615Z,63.10
2019-03-04T10:52:04.597Z,64.12
2019-03-04T10:53:04.565Z,64.81
2019-03-04T10:54:04.551Z,61.93
2019-03-04T10:55:04.561Z,63.48
2019-03-04T10:56:04.530Z,61.47
2019-03-04T10:57:04.516Z,61.37
2019-03-04T10:58:04.529Z,62.85
2019-03-04T10:59:04.490Z,62.76
2019-03-04T11:00:04.485Z,62.17
2019-03-04T11:01:04.472Z,62.71
2019-03-04T11:02:04.458Z,62.78
2019-03-04T11:03:04.475Z,61.56
2019-03-04T11:04:04.435Z,62.51
2019-03-04T11:05:04.437Z,61.15
2019-03-04T11:06:04.437Z,62.27
2019-03-04T11:07:04.403Z,61.97
2019-03-04T11:08:04.389Z,61.90
2019-03-04T11:09:04.386Z,61.46
2019-03-04T11:10:04.375Z,61.25
2019-03-04T11:11:04.374Z,62.17
2019-03-04T11:12:04.347Z,61.25
2019-03-04T11:13:04.371Z,62.17
2019-03-04T11:14:04.363Z,60.53
2019-03-04T11:15:04.311Z,60.23
2019-03-04T11:16:04.306Z,60.17
2019-03-04T11:17:04.299Z,59.84
2019-03-04T11:18:04.284Z,57.87
2019-03-04T11:19:04.308Z,59.58
2019-03-04T11:20:04.258Z,59.58
2019-03-04T11:21:04.247Z,58.44
2019-03-04T11:22:04.239Z,56.40
2019-03-04T11:23:04.231Z,56.47
2019-03-04T11:24:04.243Z,56.57
2019-03-04T11:25:04.233Z,55.05
2019-03-04T11:26:04.189Z,56.81
2019-03-04T11:27:04.180Z,56.60
2019-03-04T11:28:04.175Z,56.90
2019-03-04T11:29:04.187Z,55.99
2019-03-04T11:30:04.148Z,55.25
2019-03-04T11:31:04.135Z,54.33
2019-03-04T11:32:04.128Z,52.61
2019-03-04T11:33:04.112Z,52.76
2019-03-04T11:34:04.129Z,54.08
2019-03-04T11:35:04.092Z,53.85
2019-03-04T11:36:04.123Z,53.78
2019-03-04T11:37:04.069Z,54.36
2019-03-04T11:38:04.059Z,55.30
2019-03-04T11:39:04.073Z,53.88
2019-03-04T11:40:04.041Z,54.39
2019-03-04T11:41:04.052Z,55.81
2019-03-04T11:42:04.013Z,54.39
2019-03-04T11:43:04.005Z,52.25
2019-03-04T11:44:03.990Z,54.90
2019-03-04T11:45:04.004Z,54.28
2019-03-04T11:46:03.969Z,55.99
2019-03-04T11:47:03.984Z,53.65
2019-03-04T11:48:03.951Z,54.31
2019-03-04T11:49:03.938Z,54.31
2019-03-04T11:50:03.951Z,54.94
2019-03-04T11:51:03.914Z,55.76
2019-03-04T11:52:03.909Z,54.85
2019-03-04T11:53:03.917Z,55.97
2019-03-04T11:54:03.878Z,55.05
2019-03-04T11:55:03.873Z,54.94
2019-03-04T11:56:03.885Z,56.30
2019-03-04T11:57:03.845Z,56.50
2019-03-04T11:58:03.838Z,56.91
2019-03-04T11:59:03.857Z,56.73
2019-03-04T12:00:03.843Z,61.22
2019-03-04T12:01:03.804Z,64.11
2019-03-04T12:02:03.797Z,65.44
2019-03-04T12:03:03.798Z,65.20
2019-03-04T12:04:03.766Z,63.78
2019-03-04T12:05:03.759Z,64.63
2019-03-04T12:06:03.775Z,62.77
2019-03-04T12:07:03.771Z,60.76
2019-03-04T12:08:03.731Z,61.47
2019-03-04T12:09:03.714Z,59.36
2019-03-04T12:10:03.704Z,61.12
2019-03-04T12:11:03.694Z,60.82
2019-03-04T12:12:03.703Z,60.21
2019-03-04T12:13:03.671Z,60.58
2019-03-04T12:14:03.661Z,59.87
2019-03-04T12:15:03.650Z,60.30
2019-03-04T12:16:03.660Z,62.96
2019-03-04T12:17:03.621Z,62.93
2019-03-04T12:18:03.618Z,64.05
2019-03-04T12:19:03.625Z,64.39
2019-03-04T12:20:03.587Z,65.61
2019-03-04T12:21:03.590Z,65.17
2019-03-04T12:22:03.573Z,63.64
2019-03-04T12:23:03.573Z,62.96
2019-03-04T12:24:03.549Z,61.73
2019-03-04T12:25:03.534Z,60.92
2019-03-04T12:26:03.568Z,61.63
2019-03-04T12:27:03.510Z,61.32
2019-03-04T12:28:03.500Z,61.83
2019-03-04T12:29:03.495Z,61.32
2019-03-04T12:30:03.485Z,61.35
2019-03-04T12:31:03.486Z,61.43
2019-03-04T12:32:03.458Z,62.04
2019-03-04T12:33:03.466Z,60.78
2019-03-04T12:34:03.434Z,60.58
2019-03-04T12:35:03.447Z,61.50
2019-03-04T12:36:03.415Z,60.99
2019-03-04T12:37:03.398Z,60.07
2019-03-04T12:38:03.414Z,59.87
2019-03-04T12:39:03.375Z,59.97
2019-03-04T12:40:03.368Z,60.48
2019-03-04T12:41:03.354Z,59.97
2019-03-04T12:42:03.346Z,59.56
2019-03-04T12:43:03.359Z,59.94
2019-03-04T12:44:03.324Z,59.16
2019-03-04T12:45:03.314Z,58.85
2019-03-04T12:46:03.321Z,58.54
2019-03-04T12:47:03.288Z,60.28
2019-03-04T12:48:03.283Z,58.54
2019-03-04T12:49:03.270Z,59.66
2019-03-04T12:50:03.261Z,58.95
2019-03-04T12:51:03.272Z,58.41
2019-03-04T12:52:03.235Z,58.54